createdAt,value
2022-10-29T00:03:10.460Z,4.72
2022-10-29T00:07:13.386Z,5.28
2022-10-29T00:11:21.382Z,5.28
2022-10-29T00:15:23.359Z,4.35
2022-10-29T00:19:26.101Z,5.07
2022-10-29T00:23:28.042Z,4.15
2022-10-29T00:27:30.005Z,5.32
2022-10-29T00:31:32.147Z,5.15
2022-10-29T00:35:34.123Z,5.10
2022-10-29T00:39:36.154Z,4.97
2022-10-29T00:43:38.885Z,5.15
2022-10-29T00:47:50.132Z,4.65
2022-10-29T00:51:53.540Z,5.22
2022-10-29T00:55:55.629Z,6.72
2022-10-29T00:59:57.850Z,5.30
2022-10-29T01:04:00.341Z,5.10
2022-10-29T01:08:03.340Z,4.55
2022-10-29T01:12:14.375Z,5.93
2022-10-29T01:16:34.513Z,4.82
2022-10-29T01:21:01.131Z,4.88
2022-10-29T01:25:21.131Z,5.60
2022-10-29T01:29:57.224Z,4.45
2022-10-29T01:34:05.200Z,4.82
2022-10-29T01:38:11.448Z,4.68
2022-10-29T01:42:36.491Z,5.35
2022-10-29T01:50:48.564Z,4.50
2022-10-29T01:54:51.807Z,4.60
2022-10-29T01:58:59.269Z,5.00
2022-10-29T02:03:23.947Z,4.57
2022-10-29T02:07:28.790Z,4.43
2022-10-29T02:12:03.386Z,3.80
2022-10-29T02:16:07.287Z,3.95
2022-10-29T02:20:12.077Z,3.92
2022-10-29T02:24:14.035Z,4.57
2022-10-29T02:28:16.043Z,4.53
2022-10-29T02:32:18.082Z,4.35
2022-10-29T02:36:20.198Z,4.10
2022-10-29T02:40:22.159Z,5.20
2022-10-29T02:44:24.384Z,5.55
2022-10-29T02:48:26.726Z,4.47
2022-10-29T02:52:28.682Z,4.13
2022-10-29T02:56:30.648Z,3.60
2022-10-29T03:00:32.727Z,4.57
2022-10-29T03:04:35.023Z,4.90
2022-10-29T03:08:37.276Z,4.38
2022-10-29T03:12:39.258Z,4.43
2022-10-29T03:16:41.589Z,4.22
2022-10-29T03:20:45.391Z,4.13
2022-10-29T03:24:48.036Z,3.78
2022-10-29T03:28:50.265Z,3.95
2022-10-29T03:32:53.675Z,3.72
2022-10-29T03:36:55.846Z,3.60
2022-10-29T03:40:58.089Z,4.03
2022-10-29T03:45:02.404Z,3.70
2022-10-29T03:49:05.302Z,3.45
2022-10-29T03:53:09.063Z,3.20
2022-10-29T03:57:11.267Z,3.78
2022-10-29T04:01:13.270Z,3.03
2022-10-29T04:05:15.537Z,3.20
2022-10-29T04:09:17.510Z,2.85
2022-10-29T04:13:20.357Z,3.83
2022-10-29T04:17:22.675Z,3.72
2022-10-29T04:23:40.264Z,3.58
2022-10-29T04:30:19.779Z,3.05
2022-10-29T04:34:22.146Z,3.47
2022-10-29T04:38:24.095Z,2.95
2022-10-29T04:42:26.090Z,4.80
2022-10-29T04:46:28.360Z,4.25
2022-10-29T04:50:32.479Z,5.07
2022-10-29T04:54:34.467Z,4.22
2022-10-29T04:58:36.544Z,5.88
2022-10-29T05:02:38.763Z,5.05
2022-10-29T05:06:41.198Z,4.57
2022-10-29T05:10:43.170Z,4.55
2022-10-29T05:19:29.934Z,3.97
2022-10-29T05:23:31.958Z,3.75
2022-10-29T05:27:33.953Z,3.80
2022-10-29T05:31:35.898Z,3.83
2022-10-29T05:35:38.388Z,3.60
2022-10-29T05:39:40.468Z,3.85
2022-10-29T05:43:42.502Z,3.30
2022-10-29T05:47:44.681Z,3.65
2022-10-29T05:51:46.632Z,4.00
2022-10-29T05:55:48.594Z,3.97
2022-10-29T05:59:51.039Z,3.08
2022-10-29T06:07:57.065Z,3.35
2022-10-29T06:11:59.333Z,4.35
2022-10-29T06:16:01.706Z,4.68
2022-10-29T06:20:04.551Z,4.55
2022-10-29T06:24:06.985Z,5.53
2022-10-29T06:28:15.394Z,3.90
2022-10-29T06:32:17.531Z,5.07
2022-10-29T06:36:19.750Z,4.50
2022-10-29T06:40:22.019Z,4.38
2022-10-29T06:44:24.144Z,4.55
2022-10-29T06:48:26.124Z,5.25
2022-10-29T06:52:28.086Z,4.35
2022-10-29T06:56:30.619Z,3.60
2022-10-29T07:00:34.356Z,3.78
2022-10-29T07:04:36.391Z,3.67
2022-10-29T07:08:38.368Z,3.45
2022-10-29T07:12:41.793Z,3.60
2022-10-29T07:16:44.028Z,5.23
2022-10-29T07:20:46.337Z,3.65
2022-10-29T07:24:48.261Z,3.92
2022-10-29T07:28:50.251Z,3.75
2022-10-29T07:32:52.179Z,3.47
2022-10-29T07:36:54.383Z,2.63
2022-10-29T07:40:56.368Z,2.80
2022-10-29T07:44:58.286Z,2.63
2022-10-29T07:49:01.157Z,5.15
2022-10-29T07:53:04.838Z,12.15
2022-10-29T07:57:06.904Z,5.15
2022-10-29T08:01:08.950Z,2.60
2022-10-29T08:05:11.397Z,2.78
2022-10-29T08:09:13.774Z,2.30
2022-10-29T08:13:15.709Z,2.00
2022-10-29T08:17:17.719Z,2.17
2022-10-29T08:21:19.708Z,1.70
2022-10-29T08:25:21.774Z,1.48
2022-10-29T08:29:23.773Z,1.40
2022-10-29T08:33:25.718Z,1.60
2022-10-29T08:37:28.395Z,1.58
2022-10-29T08:41:34.734Z,2.90
2022-10-29T08:45:48.691Z,2.25
2022-10-29T08:50:02.768Z,2.00
2022-10-29T08:58:45.437Z,1.60
2022-10-29T09:02:47.514Z,2.00
2022-10-29T09:07:47.014Z,1.95
2022-10-29T09:12:17.397Z,2.30
2022-10-29T09:16:43.966Z,2.50
2022-10-29T09:21:04.435Z,1.63
2022-10-29T09:25:21.177Z,1.90
2022-10-29T09:29:52.307Z,1.80
2022-10-29T09:34:00.792Z,1.88
2022-10-29T09:38:12.920Z,1.80
2022-10-29T09:42:20.499Z,1.80
2022-10-29T09:46:51.747Z,1.58
2022-10-29T09:51:22.784Z,1.45
2022-10-29T09:55:28.611Z,1.27
2022-10-29T09:59:56.977Z,1.63
2022-10-29T10:04:06.629Z,1.50
2022-10-29T10:08:13.690Z,1.50
2022-10-29T10:12:16.338Z,1.25
2022-10-29T10:16:24.795Z,1.20
2022-10-29T10:20:29.749Z,1.23
2022-10-29T10:24:36.983Z,1.10
2022-10-29T10:28:38.901Z,1.05
2022-10-29T10:32:40.816Z,1.20
2022-10-29T10:36:46.250Z,1.25
2022-10-29T10:41:04.342Z,4.35
2022-10-29T10:45:16.016Z,1.70
2022-10-29T10:49:24.286Z,1.38
2022-10-29T10:53:26.231Z,1.40
2022-10-29T10:57:36.415Z,1.20
2022-10-29T11:01:43.711Z,1.30
2022-10-29T11:05:58.711Z,1.33
2022-10-29T11:10:05.208Z,1.20
2022-10-29T11:14:15.646Z,1.15
2022-10-29T11:18:48.040Z,1.75
2022-10-29T11:23:01.069Z,1.00
2022-10-29T11:27:22.144Z,1.23
2022-10-29T11:31:36.450Z,1.27
2022-10-29T11:39:59.856Z,1.35
2022-10-29T11:44:01.856Z,1.35
2022-10-29T11:48:11.511Z,1.10
2022-10-29T11:52:17.242Z,1.30
2022-10-29T11:56:22.998Z,1.40
2022-10-29T12:00:27.649Z,1.20
2022-10-29T12:04:57.196Z,1.30
2022-10-29T12:09:31.125Z,1.60
2022-10-29T12:13:41.152Z,1.70
2022-10-29T12:17:52.471Z,1.58
2022-10-29T12:22:06.301Z,1.85
2022-10-29T12:26:20.439Z,2.13
2022-10-29T12:30:24.705Z,1.63
2022-10-29T12:34:48.006Z,1.38
2022-10-29T12:38:55.238Z,1.70
2022-10-29T12:43:04.181Z,1.35
2022-10-29T12:47:21.246Z,1.73
2022-10-29T12:51:41.614Z,1.60
2022-10-29T12:55:46.733Z,1.25
2022-10-29T12:59:49.429Z,1.10
2022-10-29T13:04:02.250Z,1.75
2022-10-29T13:08:04.115Z,1.25
2022-10-29T13:12:11.689Z,1.73
2022-10-29T13:16:20.674Z,1.42
2022-10-29T13:20:33.161Z,1.58
2022-10-29T13:24:35.169Z,1.92
2022-10-29T13:28:37.079Z,1.40
2022-10-29T13:32:39.461Z,1.52
2022-10-29T13:36:41.790Z,1.60
2022-10-29T13:41:22.799Z,1.50
2022-10-29T13:45:25.140Z,1.63
2022-10-29T13:49:46.606Z,1.60
2022-10-29T13:54:16.486Z,1.50
2022-10-29T13:58:33.985Z,1.80
2022-10-29T14:02:57.236Z,2.03
2022-10-29T14:07:00.614Z,1.83
2022-10-29T14:11:20.285Z,1.48
2022-10-29T14:15:22.441Z,1.20
2022-10-29T14:19:24.615Z,1.40
2022-10-29T14:23:28.691Z,1.60
2022-10-29T14:27:30.730Z,1.70
2022-10-29T14:31:32.667Z,1.45
2022-10-29T14:35:34.701Z,1.20
2022-10-29T14:39:58.420Z,1.30
2022-10-29T14:44:04.450Z,1.40
2022-10-29T14:48:16.460Z,1.38
2022-10-29T14:52:42.278Z,1.25
2022-10-29T14:56:44.265Z,1.25
2022-10-29T15:01:05.889Z,1.20
2022-10-29T15:05:23.399Z,1.40
2022-10-29T15:09:28.535Z,1.10
2022-10-29T15:13:34.310Z,1.88
2022-10-29T15:17:49.310Z,1.15
2022-10-29T15:21:51.454Z,0.93
2022-10-29T15:26:11.095Z,1.58
2022-10-29T15:30:22.098Z,1.20
2022-10-29T15:34:36.389Z,2.75
2022-10-29T15:38:52.111Z,3.05
2022-10-29T15:42:55.247Z,2.95
2022-10-29T15:46:59.722Z,2.70
2022-10-29T15:51:01.778Z,2.58
2022-10-29T15:55:09.508Z,3.00
2022-10-29T15:59:14.397Z,2.20
2022-10-29T16:03:27.267Z,1.67
2022-10-29T16:07:29.406Z,2.42
2022-10-29T16:11:31.311Z,2.13
2022-10-29T16:15:33.252Z,1.80
2022-10-29T16:19:35.717Z,2.97
2022-10-29T16:23:38.580Z,2.25
2022-10-29T16:27:40.535Z,2.25
2022-10-29T16:31:43.164Z,2.10
2022-10-29T16:35:45.106Z,2.10
2022-10-29T16:39:47.039Z,5.97
2022-10-29T16:43:49.102Z,3.08
2022-10-29T16:47:52.326Z,5.28
2022-10-29T16:51:54.232Z,5.38
2022-10-29T16:55:56.232Z,4.18
2022-10-29T16:59:58.281Z,5.57
2022-10-29T17:04:00.262Z,6.95
2022-10-29T17:08:02.455Z,4.70
2022-10-29T17:12:04.642Z,3.65
2022-10-29T17:16:11.255Z,3.05
2022-10-29T17:20:13.336Z,4.47
2022-10-29T17:24:15.277Z,4.43
2022-10-29T17:28:17.217Z,4.68
2022-10-29T17:32:19.317Z,5.05
2022-10-29T17:36:21.426Z,4.72
2022-10-29T17:40:24.399Z,4.10
2022-10-29T17:44:46.684Z,4.13
2022-10-29T17:48:48.681Z,4.55
2022-10-29T17:52:53.294Z,4.72
2022-10-29T17:56:55.251Z,5.70
2022-10-29T18:01:04.998Z,4.40
2022-10-29T18:05:07.383Z,4.78
2022-10-29T18:09:09.318Z,4.85
2022-10-29T18:13:11.234Z,4.18
2022-10-29T18:17:13.217Z,4.40
2022-10-29T18:21:18.517Z,3.88
2022-10-29T18:25:27.660Z,3.33
2022-10-29T18:29:33.496Z,7.38
2022-10-29T18:33:35.628Z,9.38
2022-10-29T18:37:37.611Z,6.72
2022-10-29T18:41:40.523Z,5.53
2022-10-29T18:45:42.461Z,6.30
2022-10-29T18:49:44.537Z,5.28
2022-10-29T18:53:47.014Z,5.10
2022-10-29T18:57:49.039Z,5.78
2022-10-29T19:01:51.542Z,3.45
2022-10-29T19:05:53.545Z,3.25
2022-10-29T19:09:55.464Z,3.95
2022-10-29T19:14:00.390Z,3.75
2022-10-29T19:18:02.425Z,3.50
2022-10-29T19:22:04.427Z,3.50
2022-10-29T19:26:12.237Z,3.60
2022-10-29T19:30:14.304Z,3.35
2022-10-29T19:34:16.286Z,4.03
2022-10-29T19:38:18.217Z,4.00
2022-10-29T19:42:20.168Z,4.50
2022-10-29T19:46:25.037Z,4.10
2022-10-29T19:50:26.962Z,3.58
2022-10-29T19:54:28.888Z,4.13
2022-10-29T19:58:33.239Z,3.90
2022-10-29T20:02:35.410Z,3.95
2022-10-29T20:06:37.544Z,3.38
2022-10-29T20:10:39.866Z,3.55
2022-10-29T20:14:41.786Z,5.32
2022-10-29T20:18:44.172Z,5.40
2022-10-29T20:22:50.266Z,4.38
2022-10-29T20:26:52.182Z,3.00
2022-10-29T20:31:14.320Z,2.67
2022-10-29T20:35:17.264Z,2.25
2022-10-29T20:39:20.229Z,2.55
2022-10-29T20:43:22.794Z,2.70
2022-10-29T20:47:24.895Z,2.95
2022-10-29T20:51:27.659Z,3.38
2022-10-29T20:55:29.782Z,4.72
2022-10-29T20:59:31.902Z,4.78
2022-10-29T21:03:34.041Z,3.65
2022-10-29T21:07:36.029Z,3.15
2022-10-29T21:11:38.102Z,3.10
2022-10-29T21:15:40.059Z,2.83
2022-10-29T21:19:41.994Z,2.53
2022-10-29T21:23:44.337Z,5.68
2022-10-29T21:27:46.287Z,2.92
2022-10-29T21:31:49.706Z,4.15
2022-10-29T21:35:55.105Z,3.42
2022-10-29T21:40:00.132Z,2.50
2022-10-29T21:44:05.625Z,3.60
2022-10-29T21:48:07.703Z,2.80
2022-10-29T21:52:09.603Z,2.92
2022-10-29T21:56:13.906Z,2.80
2022-10-29T22:04:18.919Z,2.25
2022-10-29T22:12:27.778Z,2.75
2022-10-29T22:16:29.718Z,1.92
2022-10-29T22:20:31.648Z,2.33
2022-10-29T22:24:33.616Z,2.42
2022-10-29T22:28:35.608Z,2.65
2022-10-29T22:32:37.806Z,2.20
2022-10-29T22:36:39.730Z,2.22
2022-10-29T22:40:41.710Z,2.50
2022-10-29T22:44:43.644Z,2.45
2022-10-29T22:48:46.197Z,3.08
2022-10-29T22:52:48.395Z,3.80
2022-10-29T22:56:50.321Z,2.40
2022-10-29T23:01:04.294Z,3.10
2022-10-29T23:05:06.643Z,2.90
2022-10-29T23:09:08.703Z,2.08
2022-10-29T23:13:10.599Z,2.08
2022-10-29T23:17:20.218Z,3.10
2022-10-29T23:21:22.781Z,2.28
2022-10-29T23:25:25.057Z,3.10
2022-10-29T23:29:27.083Z,2.47
2022-10-29T23:33:30.638Z,2.40
2022-10-29T23:37:32.623Z,2.97
2022-10-29T23:41:34.845Z,2.30
2022-10-29T23:45:37.228Z,2.15
2022-10-29T23:49:39.213Z,2.95
2022-10-29T23:53:41.607Z,2.70
2022-10-29T23:57:43.496Z,2.40
